createdAt,value
2023-03-14T00:02:14.456Z,24.25
2023-03-14T00:04:41.861Z,23.80
2023-03-14T00:07:08.809Z,20.98
2023-03-14T00:09:35.531Z,22.30
2023-03-14T00:12:04.416Z,23.10
2023-03-14T00:14:32.949Z,22.67
2023-03-14T00:16:59.658Z,22.17
2023-03-14T00:19:27.017Z,21.35
2023-03-14T00:21:54.573Z,24.10
2023-03-14T00:24:22.748Z,17.05
2023-03-14T00:27:20.518Z,18.95
2023-03-14T00:29:52.077Z,20.58
2023-03-14T00:32:19.116Z,20.02
2023-03-14T00:34:45.977Z,22.08
2023-03-14T00:37:12.765Z,24.02
2023-03-14T00:39:39.558Z,23.83
2023-03-14T00:42:14.227Z,20.10
2023-03-14T00:44:42.792Z,20.92
2023-03-14T00:47:10.698Z,21.38
2023-03-14T00:49:37.470Z,22.60
2023-03-14T00:52:04.349Z,21.80
2023-03-14T00:54:31.502Z,23.88
2023-03-14T00:56:58.309Z,19.48
2023-03-14T00:59:25.114Z,23.83
2023-03-14T01:01:52.393Z,21.00
2023-03-14T01:04:19.734Z,22.83
2023-03-14T01:06:46.773Z,20.73
2023-03-14T01:09:13.547Z,19.42
2023-03-14T01:11:40.336Z,19.65
2023-03-14T01:14:07.173Z,22.05
2023-03-14T01:16:36.246Z,22.40
2023-03-14T01:19:04.375Z,21.10
2023-03-14T01:21:36.130Z,22.15
2023-03-14T01:24:05.348Z,20.23
2023-03-14T01:26:34.639Z,18.70
2023-03-14T01:29:02.099Z,22.20
2023-03-14T01:31:29.711Z,20.42
2023-03-14T01:33:56.798Z,22.58
2023-03-14T01:36:24.576Z,19.58
2023-03-14T01:38:51.912Z,21.98
2023-03-14T01:41:25.429Z,21.50
2023-03-14T01:43:54.403Z,22.50
2023-03-14T01:46:34.220Z,22.65
2023-03-14T01:49:20.403Z,22.60
2023-03-14T01:52:01.334Z,20.05
2023-03-14T01:54:40.486Z,21.47
2023-03-14T01:57:38.943Z,23.60
2023-03-14T02:00:13.700Z,21.33
2023-03-14T02:02:51.493Z,25.17
2023-03-14T02:05:29.076Z,26.40
2023-03-14T02:08:02.421Z,24.13
2023-03-14T02:10:44.219Z,22.98
2023-03-14T02:13:12.762Z,21.70
2023-03-14T02:15:51.962Z,23.73
2023-03-14T02:18:38.522Z,20.75
2023-03-14T02:21:30.063Z,23.00
2023-03-14T02:24:26.039Z,23.00
2023-03-14T02:27:07.292Z,23.38
2023-03-14T02:29:38.876Z,22.40
2023-03-14T02:32:06.920Z,19.15
2023-03-14T02:34:34.386Z,21.10
2023-03-14T02:37:01.790Z,22.45
2023-03-14T02:39:40.206Z,23.15
2023-03-14T02:42:07.744Z,20.25
2023-03-14T02:44:36.443Z,19.08
2023-03-14T02:47:05.545Z,19.60
2023-03-14T02:49:34.266Z,21.17
2023-03-14T02:52:01.102Z,20.48
2023-03-14T02:54:27.861Z,23.42
2023-03-14T02:56:54.716Z,20.85
2023-03-14T02:59:21.972Z,20.83
2023-03-14T03:01:52.733Z,22.48
2023-03-14T03:04:19.636Z,23.33
2023-03-14T03:06:47.032Z,24.13
2023-03-14T03:09:14.696Z,20.13
2023-03-14T03:11:43.008Z,23.02
2023-03-14T03:14:15.254Z,21.20
2023-03-14T03:16:42.003Z,22.50
2023-03-14T03:19:08.825Z,21.15
2023-03-14T03:21:36.027Z,20.73
2023-03-14T03:24:02.839Z,20.75
2023-03-14T03:26:29.583Z,19.77
2023-03-14T03:28:56.379Z,22.23
2023-03-14T03:31:24.190Z,22.65
2023-03-14T03:33:51.001Z,23.13
2023-03-14T03:36:23.677Z,21.85
2023-03-14T03:38:51.119Z,25.58
2023-03-14T03:41:17.993Z,24.73
2023-03-14T03:43:44.864Z,23.63
2023-03-14T03:46:14.598Z,22.05
2023-03-14T03:48:41.837Z,21.25
2023-03-14T03:51:10.432Z,22.58
2023-03-14T03:53:37.520Z,23.92
2023-03-14T03:56:10.379Z,21.23
2023-03-14T03:58:39.756Z,24.95
2023-03-14T04:01:07.997Z,22.63
2023-03-14T04:03:35.889Z,23.45
2023-03-14T04:06:11.866Z,24.60
2023-03-14T04:08:41.692Z,25.42
2023-03-14T04:11:11.831Z,24.30
2023-03-14T04:13:57.258Z,23.85
2023-03-14T04:16:26.485Z,21.38
2023-03-14T04:18:59.877Z,25.08
2023-03-14T04:21:27.327Z,23.13
2023-03-14T04:23:57.323Z,21.40
2023-03-14T04:26:25.686Z,21.20
2023-03-14T04:28:52.599Z,25.35
2023-03-14T04:31:22.540Z,27.40
2023-03-14T04:33:50.612Z,24.83
2023-03-14T04:36:23.366Z,22.15
2023-03-14T04:38:50.198Z,23.20
2023-03-14T04:41:20.627Z,24.63
2023-03-14T04:43:47.623Z,23.45
2023-03-14T04:46:14.969Z,20.77
2023-03-14T04:48:42.116Z,22.98
2023-03-14T04:51:09.406Z,26.42
2023-03-14T04:53:38.127Z,24.90
2023-03-14T04:56:09.847Z,21.88
2023-03-14T04:58:38.879Z,23.30
2023-03-14T05:01:07.432Z,22.27
2023-03-14T05:03:52.631Z,23.80
2023-03-14T05:06:38.130Z,25.55
2023-03-14T05:09:23.711Z,23.45
2023-03-14T05:12:11.519Z,23.83
2023-03-14T05:15:01.349Z,21.75
2023-03-14T05:18:00.962Z,20.55
2023-03-14T05:20:44.096Z,23.65
2023-03-14T05:23:40.669Z,20.13
2023-03-14T05:26:18.051Z,19.27
2023-03-14T05:29:03.020Z,17.73
2023-03-14T05:31:37.836Z,22.73
2023-03-14T05:34:37.679Z,24.27
2023-03-14T05:37:13.596Z,20.77
2023-03-14T05:39:53.712Z,22.50
2023-03-14T05:42:58.929Z,20.50
2023-03-14T05:45:51.755Z,22.30
2023-03-14T05:48:53.588Z,20.63
2023-03-14T05:51:43.507Z,21.48
2023-03-14T05:54:22.453Z,20.58
2023-03-14T05:57:16.191Z,19.15
2023-03-14T06:00:01.645Z,19.45
2023-03-14T06:02:54.726Z,20.05
2023-03-14T06:05:28.168Z,22.05
2023-03-14T06:08:00.001Z,19.40
2023-03-14T06:10:28.914Z,20.55
2023-03-14T06:12:55.830Z,22.60
2023-03-14T06:15:23.184Z,22.88
2023-03-14T06:17:56.278Z,20.60
2023-03-14T06:20:23.908Z,25.48
2023-03-14T06:22:51.110Z,20.02
2023-03-14T06:25:18.764Z,21.50
2023-03-14T06:27:47.655Z,19.50
2023-03-14T06:30:16.050Z,20.20
2023-03-14T06:32:43.139Z,22.10
2023-03-14T06:35:13.086Z,20.67
2023-03-14T06:37:43.205Z,20.05
2023-03-14T06:40:17.791Z,19.98
2023-03-14T06:43:00.676Z,21.40
2023-03-14T06:45:29.998Z,21.27
2023-03-14T06:47:59.525Z,19.65
2023-03-14T06:50:35.694Z,20.10
2023-03-14T06:53:03.664Z,17.33
2023-03-14T06:55:31.265Z,20.23
2023-03-14T06:57:58.127Z,19.00
2023-03-14T07:00:25.995Z,21.90
2023-03-14T07:02:55.904Z,20.98
2023-03-14T07:05:29.770Z,19.15
2023-03-14T07:07:57.137Z,19.00
2023-03-14T07:10:24.501Z,20.58
2023-03-14T07:12:51.527Z,20.15
2023-03-14T07:15:19.614Z,19.85
2023-03-14T07:17:51.400Z,18.17
2023-03-14T07:20:21.577Z,18.50
2023-03-14T07:22:52.097Z,20.50
2023-03-14T07:25:26.603Z,19.63
2023-03-14T07:27:54.094Z,17.75
2023-03-14T07:30:20.997Z,17.98
2023-03-14T07:32:47.908Z,19.73
2023-03-14T07:35:15.305Z,20.60
2023-03-14T07:37:42.550Z,20.83
2023-03-14T07:40:13.609Z,19.05
2023-03-14T07:42:40.491Z,21.27
2023-03-14T07:45:28.639Z,20.02
2023-03-14T07:47:58.376Z,20.50
2023-03-14T07:50:26.950Z,23.83
2023-03-14T07:52:55.502Z,23.77
2023-03-14T07:55:22.491Z,27.13
2023-03-14T07:57:49.304Z,24.70
2023-03-14T08:00:16.597Z,26.52
2023-03-14T08:02:43.734Z,23.08
2023-03-14T08:05:11.557Z,25.83
2023-03-14T08:07:38.571Z,21.63
2023-03-14T08:10:06.548Z,22.48
2023-03-14T08:12:33.374Z,22.02
2023-03-14T08:15:00.582Z,25.42
2023-03-14T08:17:29.021Z,23.00
2023-03-14T08:19:56.037Z,25.73
2023-03-14T08:22:22.792Z,24.10
2023-03-14T08:24:49.581Z,23.63
2023-03-14T08:27:16.411Z,24.23
2023-03-14T08:29:43.195Z,26.25
2023-03-14T08:32:10.213Z,24.50
2023-03-14T08:34:38.480Z,26.20
2023-03-14T08:37:13.690Z,23.83
2023-03-14T08:39:50.458Z,24.27
2023-03-14T08:42:17.340Z,23.58
2023-03-14T08:44:44.291Z,20.80
2023-03-14T08:47:11.218Z,25.25
2023-03-14T08:49:38.137Z,25.27
2023-03-14T08:52:06.176Z,26.05
2023-03-14T08:54:32.985Z,25.35
2023-03-14T08:56:59.743Z,28.60
2023-03-14T08:59:26.522Z,26.52
2023-03-14T09:01:53.543Z,26.92
2023-03-14T09:04:20.355Z,24.58
2023-03-14T09:06:47.134Z,29.40
2023-03-14T09:09:14.636Z,23.42
2023-03-14T09:11:41.541Z,25.83
2023-03-14T09:14:08.499Z,23.25
2023-03-14T09:16:35.347Z,27.63
2023-03-14T09:19:02.174Z,24.40
2023-03-14T09:21:28.999Z,24.30
2023-03-14T09:23:55.717Z,24.48
2023-03-14T09:26:22.490Z,27.38
2023-03-14T09:28:49.948Z,25.08
2023-03-14T09:31:17.058Z,28.58
2023-03-14T09:33:43.897Z,22.52
2023-03-14T09:36:10.838Z,25.38
2023-03-14T09:38:37.719Z,23.38
2023-03-14T09:41:33.028Z,27.17
2023-03-14T09:44:30.515Z,27.60
2023-03-14T09:47:03.114Z,26.50
2023-03-14T09:49:35.989Z,26.17
2023-03-14T09:52:32.806Z,26.85
2023-03-14T09:55:31.973Z,26.20
2023-03-14T09:58:09.987Z,24.92
2023-03-14T10:00:37.089Z,25.15
2023-03-14T10:03:32.901Z,23.80
2023-03-14T10:06:00.123Z,23.90
2023-03-14T10:08:27.333Z,25.13
2023-03-14T10:10:55.822Z,28.25
2023-03-14T10:13:32.363Z,26.17
2023-03-14T10:16:09.518Z,25.73
2023-03-14T10:18:36.391Z,25.38
2023-03-14T10:21:28.968Z,25.48
2023-03-14T10:23:55.905Z,26.42
2023-03-14T10:26:28.877Z,26.48
2023-03-14T10:29:09.357Z,24.90
2023-03-14T10:31:56.824Z,25.08
2023-03-14T10:34:33.549Z,25.00
2023-03-14T10:37:08.826Z,24.67
2023-03-14T10:39:43.455Z,25.42
2023-03-14T10:42:29.307Z,27.25
2023-03-14T10:45:00.100Z,25.88
2023-03-14T10:47:29.655Z,25.63
2023-03-14T10:49:58.421Z,25.23
2023-03-14T10:52:31.649Z,27.05
2023-03-14T10:55:13.340Z,26.55
2023-03-14T10:57:42.098Z,29.65
2023-03-14T11:00:19.117Z,25.90
2023-03-14T11:03:10.797Z,26.88
2023-03-14T11:06:19.564Z,29.60
2023-03-14T11:09:07.029Z,28.50
2023-03-14T11:11:34.778Z,29.15
2023-03-14T11:14:49.508Z,24.45
2023-03-14T11:17:47.317Z,25.55
2023-03-14T11:20:39.897Z,27.10
2023-03-14T11:23:33.681Z,26.08
2023-03-14T11:26:26.472Z,27.33
2023-03-14T11:28:59.822Z,25.80
2023-03-14T11:31:30.916Z,28.85
2023-03-14T11:34:18.921Z,27.20
2023-03-14T11:36:54.024Z,27.98
2023-03-14T11:41:52.413Z,29.33
2023-03-14T11:44:30.875Z,26.75
2023-03-14T11:47:27.046Z,28.15
2023-03-14T11:50:02.586Z,28.60
2023-03-14T11:52:38.279Z,28.38
2023-03-14T11:55:23.434Z,24.83
2023-03-14T11:57:51.910Z,27.50
2023-03-14T12:00:25.231Z,26.45
2023-03-14T12:03:21.019Z,24.95
2023-03-14T12:06:27.527Z,24.20
2023-03-14T12:09:00.183Z,25.48
2023-03-14T12:11:53.768Z,29.75
2023-03-14T12:14:35.905Z,26.97
2023-03-14T12:17:19.014Z,28.17
2023-03-14T12:19:47.860Z,27.95
2023-03-14T12:22:37.543Z,27.90
2023-03-14T12:25:16.150Z,28.75
2023-03-14T12:27:48.680Z,29.95
2023-03-14T12:30:28.496Z,24.52
2023-03-14T12:33:10.719Z,24.77
2023-03-14T12:35:41.140Z,25.13
2023-03-14T12:38:20.264Z,25.77
2023-03-14T12:41:24.338Z,27.10
2023-03-14T12:46:27.438Z,25.92
2023-03-14T12:49:15.969Z,25.13
2023-03-14T12:51:46.275Z,25.73
2023-03-14T12:54:31.184Z,27.90
2023-03-14T12:57:29.549Z,24.40
2023-03-14T13:00:01.007Z,28.63
2023-03-14T13:02:46.845Z,27.05
2023-03-14T13:05:14.271Z,24.77
2023-03-14T13:07:46.915Z,26.92
2023-03-14T13:10:49.122Z,27.10
2023-03-14T13:13:26.778Z,26.50
2023-03-14T13:16:07.920Z,27.13
2023-03-14T13:18:40.568Z,28.40
2023-03-14T13:21:25.627Z,27.05
2023-03-14T13:24:08.660Z,30.27
2023-03-14T13:26:43.632Z,28.70
2023-03-14T13:29:22.976Z,28.17
2023-03-14T13:31:52.752Z,27.92
2023-03-14T13:34:20.041Z,26.85
2023-03-14T13:36:50.218Z,25.48
2023-03-14T13:39:25.722Z,26.45
2023-03-14T13:42:00.182Z,26.70
2023-03-14T13:44:29.727Z,24.73
2023-03-14T13:47:02.223Z,24.20
2023-03-14T13:49:33.359Z,28.00
2023-03-14T13:52:00.209Z,29.10
2023-03-14T13:54:28.521Z,29.40
2023-03-14T13:57:03.658Z,29.85
2023-03-14T13:59:33.319Z,29.33
2023-03-14T14:02:04.862Z,29.10
2023-03-14T14:04:34.544Z,34.17
2023-03-14T14:07:01.904Z,33.42
2023-03-14T14:09:32.312Z,27.95
2023-03-14T14:12:16.500Z,27.45
2023-03-14T14:14:57.314Z,28.98
2023-03-14T14:17:48.860Z,27.75
2023-03-14T14:20:23.503Z,27.85
2023-03-14T14:22:51.621Z,27.63
2023-03-14T14:25:18.770Z,28.52
2023-03-14T14:27:50.421Z,29.52
2023-03-14T14:30:20.192Z,27.48
2023-03-14T14:32:49.574Z,29.33
2023-03-14T14:35:36.336Z,28.05
2023-03-14T14:38:04.299Z,25.25
2023-03-14T14:40:32.293Z,26.65
2023-03-14T14:43:06.787Z,25.25
2023-03-14T14:45:35.211Z,28.10
2023-03-14T14:48:02.013Z,28.70
2023-03-14T14:50:34.666Z,29.30
2023-03-14T14:53:04.822Z,28.35
2023-03-14T14:55:40.674Z,30.02
2023-03-14T14:58:26.570Z,27.98
2023-03-14T15:00:56.332Z,23.88
2023-03-14T15:03:23.342Z,24.92
2023-03-14T15:05:50.317Z,25.83
2023-03-14T15:08:17.188Z,26.80
2023-03-14T15:10:44.104Z,24.83
2023-03-14T15:13:13.825Z,28.02
2023-03-14T15:15:42.729Z,27.55
2023-03-14T15:18:18.598Z,27.52
2023-03-14T15:20:47.120Z,28.88
2023-03-14T15:23:17.385Z,27.35
2023-03-14T15:25:55.036Z,26.30
2023-03-14T15:28:25.834Z,25.83
2023-03-14T15:30:58.119Z,23.48
2023-03-14T15:33:26.699Z,25.33
2023-03-14T15:35:53.890Z,28.17
2023-03-14T15:38:23.884Z,24.38
2023-03-14T15:40:52.067Z,25.75
2023-03-14T15:43:20.146Z,25.23
2023-03-14T15:45:47.470Z,26.65
2023-03-14T15:48:20.863Z,25.08
2023-03-14T15:50:47.680Z,26.00
2023-03-14T15:53:14.904Z,27.13
2023-03-14T15:55:41.748Z,25.48
2023-03-14T15:58:21.851Z,28.58
2023-03-14T16:00:50.525Z,24.50
2023-03-14T16:03:18.010Z,27.25
2023-03-14T16:05:44.888Z,28.73
2023-03-14T16:08:11.687Z,28.40
2023-03-14T16:10:40.167Z,28.40
2023-03-14T16:13:07.063Z,27.30
2023-03-14T16:15:36.618Z,21.95
2023-03-14T16:18:15.276Z,30.27
2023-03-14T16:21:18.675Z,20.63
2023-03-14T16:23:45.935Z,26.42
2023-03-14T16:26:16.330Z,29.27
2023-03-14T16:28:43.823Z,24.88
2023-03-14T16:31:14.427Z,24.55
2023-03-14T16:33:41.227Z,25.05
2023-03-14T16:36:10.383Z,23.52
2023-03-14T16:38:39.703Z,23.45
2023-03-14T16:41:17.551Z,25.98
2023-03-14T16:43:44.798Z,26.33
2023-03-14T16:46:19.240Z,22.70
2023-03-14T16:48:46.320Z,24.67
2023-03-14T16:51:16.493Z,24.40
2023-03-14T16:53:44.792Z,24.42
2023-03-14T16:56:12.415Z,24.80
2023-03-14T16:58:39.528Z,23.65
2023-03-14T17:01:11.513Z,25.23
2023-03-14T17:03:50.074Z,24.20
2023-03-14T17:06:28.231Z,24.17
2023-03-14T17:08:56.537Z,25.48
2023-03-14T17:11:23.801Z,26.48
2023-03-14T17:13:50.646Z,28.67
2023-03-14T17:16:17.755Z,25.30
2023-03-14T17:18:47.720Z,25.23
2023-03-14T17:21:14.540Z,24.23
2023-03-14T17:23:42.001Z,26.80
2023-03-14T17:26:12.982Z,24.42
2023-03-14T17:28:40.110Z,25.55
2023-03-14T17:31:13.214Z,24.40
2023-03-14T17:33:40.164Z,25.23
2023-03-14T17:36:09.828Z,24.10
2023-03-14T17:38:39.941Z,26.20
2023-03-14T17:41:12.202Z,21.85
2023-03-14T17:43:39.710Z,26.27
2023-03-14T17:46:14.911Z,24.10
2023-03-14T17:48:47.186Z,24.83
2023-03-14T17:51:15.781Z,21.60
2023-03-14T17:53:42.604Z,25.75
2023-03-14T17:56:10.169Z,21.77
2023-03-14T17:58:37.926Z,24.45
2023-03-14T18:01:16.433Z,23.05
2023-03-14T18:03:45.736Z,21.10
2023-03-14T18:06:14.869Z,25.08
2023-03-14T18:08:43.820Z,23.95
2023-03-14T18:11:12.262Z,23.67
2023-03-14T18:13:40.413Z,23.38
2023-03-14T18:16:09.104Z,25.88
2023-03-14T18:18:36.005Z,23.48
2023-03-14T18:21:02.902Z,23.70
2023-03-14T18:23:29.663Z,22.63
2023-03-14T18:25:59.709Z,20.48
2023-03-14T18:28:27.048Z,22.33
2023-03-14T18:30:54.119Z,19.88
2023-03-14T18:33:24.060Z,21.50
2023-03-14T18:35:53.728Z,20.42
2023-03-14T18:38:21.250Z,22.42
2023-03-14T18:40:48.127Z,23.00
2023-03-14T18:43:15.027Z,21.33
2023-03-14T18:45:41.852Z,24.65
2023-03-14T18:48:08.580Z,24.50
2023-03-14T18:50:35.463Z,24.75
2023-03-14T18:53:02.938Z,22.23
2023-03-14T18:55:29.759Z,21.77
2023-03-14T18:57:56.640Z,19.50
2023-03-14T19:00:26.827Z,22.70
2023-03-14T19:02:54.010Z,23.20
2023-03-14T19:05:21.134Z,23.80
2023-03-14T19:07:48.098Z,24.00
2023-03-14T19:10:15.364Z,23.65
2023-03-14T19:12:42.233Z,24.10
2023-03-14T19:15:12.038Z,23.38
2023-03-14T19:17:38.936Z,25.35
2023-03-14T19:20:06.407Z,21.85
2023-03-14T19:22:33.950Z,24.48
2023-03-14T19:25:00.832Z,23.67
2023-03-14T19:27:27.871Z,25.77
2023-03-14T19:29:54.694Z,23.33
2023-03-14T19:32:21.569Z,25.30
2023-03-14T19:34:48.804Z,23.65
2023-03-14T19:37:15.658Z,24.08
2023-03-14T19:39:45.680Z,23.58
2023-03-14T19:42:13.794Z,20.67
2023-03-14T19:44:40.724Z,23.70
2023-03-14T19:47:07.622Z,25.30
2023-03-14T19:49:34.564Z,24.60
2023-03-14T19:52:01.622Z,21.77
2023-03-14T19:54:28.487Z,24.48
2023-03-14T19:56:55.500Z,23.13
2023-03-14T19:59:22.444Z,23.80
2023-03-14T20:01:49.526Z,23.45
2023-03-14T20:04:16.359Z,27.08
2023-03-14T20:06:43.171Z,26.85
2023-03-14T20:09:13.062Z,28.05
2023-03-14T20:11:40.858Z,25.80
2023-03-14T20:14:09.276Z,27.55
2023-03-14T20:16:37.861Z,26.70
2023-03-14T20:19:11.295Z,25.20
2023-03-14T20:21:38.421Z,26.35
2023-03-14T20:24:07.774Z,25.25
2023-03-14T20:26:35.281Z,27.15
2023-03-14T20:29:02.192Z,25.52
2023-03-14T20:31:29.097Z,26.20
2023-03-14T20:33:56.089Z,26.75
2023-03-14T20:36:22.963Z,22.98
2023-03-14T20:38:49.840Z,25.23
2023-03-14T20:41:16.663Z,22.15
2023-03-14T20:43:43.667Z,26.05
2023-03-14T20:46:14.038Z,22.13
2023-03-14T20:48:41.080Z,26.77
2023-03-14T20:51:08.211Z,25.20
2023-03-14T20:53:35.492Z,25.38
2023-03-14T20:56:02.372Z,24.98
2023-03-14T20:58:29.144Z,22.30
2023-03-14T21:00:57.427Z,23.88
2023-03-14T21:03:25.467Z,21.08
2023-03-14T21:05:52.635Z,22.33
2023-03-14T21:08:23.242Z,20.05
2023-03-14T21:10:52.067Z,23.60
2023-03-14T21:13:19.063Z,28.02
2023-03-14T21:15:46.256Z,21.88
2023-03-14T21:18:13.559Z,24.40
2023-03-14T21:20:42.377Z,22.38
2023-03-14T21:23:11.755Z,23.98
2023-03-14T21:25:39.218Z,24.70
2023-03-14T21:28:06.583Z,23.00
2023-03-14T21:30:34.755Z,26.55
2023-03-14T21:33:02.166Z,23.52
2023-03-14T21:35:29.699Z,24.63
2023-03-14T21:37:56.939Z,24.15
2023-03-14T21:40:25.091Z,23.23
2023-03-14T21:42:55.461Z,24.10
2023-03-14T21:45:26.013Z,23.23
2023-03-14T21:47:57.924Z,21.23
2023-03-14T21:50:26.316Z,22.63
2023-03-14T21:52:56.973Z,20.73
2023-03-14T21:55:25.876Z,23.40
2023-03-14T21:57:55.361Z,21.52
2023-03-14T22:00:24.896Z,23.52
2023-03-14T22:03:11.708Z,21.13
2023-03-14T22:05:45.966Z,22.27
2023-03-14T22:08:14.726Z,20.77
2023-03-14T22:10:50.341Z,22.42
2023-03-14T22:13:17.720Z,24.08
2023-03-14T22:15:46.320Z,24.10
2023-03-14T22:18:14.431Z,21.65
2023-03-14T22:20:42.190Z,22.98
2023-03-14T22:23:09.875Z,23.33
2023-03-14T22:25:40.954Z,22.02
2023-03-14T22:28:07.764Z,19.70
2023-03-14T22:30:34.564Z,23.10
2023-03-14T22:33:01.529Z,23.42
2023-03-14T22:35:29.229Z,23.65
2023-03-14T22:37:56.371Z,23.48
2023-03-14T22:40:23.156Z,22.77
2023-03-14T22:42:53.755Z,22.25
2023-03-14T22:45:21.708Z,26.05
2023-03-14T22:47:48.755Z,24.10
2023-03-14T22:50:16.237Z,22.33
2023-03-14T22:52:43.162Z,21.90
2023-03-14T22:55:10.374Z,24.75
2023-03-14T22:57:38.462Z,23.65
2023-03-14T23:00:12.029Z,20.23
2023-03-14T23:02:40.995Z,22.05
2023-03-14T23:05:08.380Z,22.38
2023-03-14T23:07:35.369Z,19.85
2023-03-14T23:10:02.299Z,22.67
2023-03-14T23:12:29.026Z,22.52
2023-03-14T23:14:55.831Z,23.30
2023-03-14T23:17:25.521Z,22.80
2023-03-14T23:19:53.762Z,22.73
2023-03-14T23:22:21.160Z,22.95
2023-03-14T23:24:48.915Z,23.08
2023-03-14T23:27:17.344Z,23.15
2023-03-14T23:29:46.721Z,23.50
2023-03-14T23:32:15.836Z,26.60
2023-03-14T23:34:43.961Z,25.45
2023-03-14T23:37:15.405Z,23.13
2023-03-14T23:39:45.974Z,23.95
2023-03-14T23:42:13.645Z,25.17
2023-03-14T23:44:41.038Z,22.55
2023-03-14T23:47:09.197Z,24.15
2023-03-14T23:49:36.116Z,23.38
2023-03-14T23:52:03.797Z,21.13
2023-03-14T23:54:30.629Z,24.42
2023-03-14T23:56:57.408Z,23.02
2023-03-14T23:59:24.404Z,24.35
